Terminal Aerodrome Forecast
Issued by NWS

Home | Current Version | Previous Version | Text Only | Print | Product List | Glossary On
Versions: 1 2 3 4 5 6 7 8 9 10 11 12 13 14 15 16
000
FTUS44 KLZK 192000 AAA
TAFHOT
TAF AMD
KHOT 192015Z 1920/2018 08005KT 6SM BR OVC007
     FM200000 08003KT 5SM BR OVC005
     FM200900 07003KT 3SM BR OVC003
      TEMPO 2010/2014 1/2SM FG VV001
     FM201530 08003KT 5SM BR OVC007
     FM201700 12003KT P6SM OVC015=

USA.gov is the U.S. government's official web portal to all federal, state and local government web resources and services.